createdAt,value
2018-08-30T00:01:55.934Z,7.07
2018-08-30T00:04:24.044Z,6.60
2018-08-30T00:06:52.153Z,7.07
2018-08-30T00:09:20.271Z,7.10
2018-08-30T00:11:48.376Z,6.17
2018-08-30T00:14:16.498Z,7.13
2018-08-30T00:16:44.615Z,6.40
2018-08-30T00:19:12.727Z,7.40
2018-08-30T00:21:40.837Z,8.03
2018-08-30T00:24:09.250Z,8.60
2018-08-30T00:26:37.468Z,8.53
2018-08-30T00:29:05.583Z,8.40
2018-08-30T00:31:33.684Z,9.23
2018-08-30T00:34:01.785Z,9.50
2018-08-30T00:36:29.897Z,9.40
2018-08-30T00:38:58.001Z,9.40
2018-08-30T00:41:26.199Z,9.57
2018-08-30T00:43:54.332Z,8.73
2018-08-30T00:46:22.465Z,10.47
2018-08-30T00:48:50.571Z,9.97
2018-08-30T00:51:18.703Z,10.00
2018-08-30T00:53:46.816Z,10.30
2018-08-30T00:56:14.937Z,9.43
2018-08-30T00:58:43.046Z,9.50
2018-08-30T01:01:11.167Z,13.27
2018-08-30T01:03:39.282Z,13.77
2018-08-30T01:06:07.406Z,13.77
2018-08-30T01:08:35.538Z,14.27
2018-08-30T01:11:03.667Z,14.03
2018-08-30T01:13:31.771Z,13.50
2018-08-30T01:15:59.897Z,14.80
2018-08-30T01:18:28.007Z,14.00
2018-08-30T01:20:56.130Z,14.13
2018-08-30T01:23:24.239Z,14.60
2018-08-30T01:25:52.390Z,16.60
2018-08-30T01:28:20.502Z,16.53
2018-08-30T01:30:48.613Z,14.50
2018-08-30T01:33:16.721Z,17.30
2018-08-30T01:35:44.837Z,17.50
2018-08-30T01:38:12.959Z,17.13
2018-08-30T01:40:41.075Z,19.00
2018-08-30T01:43:09.215Z,17.30
2018-08-30T01:45:37.341Z,17.40
2018-08-30T01:48:05.482Z,19.27
2018-08-30T01:50:33.602Z,18.80
2018-08-30T01:53:01.734Z,18.80
2018-08-30T01:55:29.862Z,18.40
2018-08-30T01:57:58.001Z,19.07
2018-08-30T02:00:26.098Z,17.80
2018-08-30T02:02:54.206Z,13.83
2018-08-30T02:05:22.323Z,18.67
2018-08-30T02:07:50.438Z,17.23
2018-08-30T02:10:18.550Z,17.30
2018-08-30T02:12:46.677Z,17.80
2018-08-30T02:15:14.826Z,18.03
2018-08-30T02:17:42.957Z,17.40
2018-08-30T02:20:11.108Z,19.17
2018-08-30T02:22:39.221Z,17.13
2018-08-30T02:25:07.341Z,18.90
2018-08-30T02:27:35.450Z,18.20
2018-08-30T02:30:03.565Z,19.13
2018-08-30T02:32:31.679Z,19.23
2018-08-30T02:34:59.802Z,19.43
2018-08-30T02:37:27.933Z,19.50
2018-08-30T02:39:56.057Z,19.63
2018-08-30T02:42:24.194Z,20.13
2018-08-30T02:44:52.354Z,20.60
2018-08-30T02:47:20.461Z,19.30
2018-08-30T02:49:48.577Z,20.30
2018-08-30T02:52:16.697Z,18.70
2018-08-30T02:54:44.809Z,17.90
2018-08-30T02:57:12.923Z,17.17
2018-08-30T02:59:41.063Z,16.97
2018-08-30T03:02:09.210Z,17.30
2018-08-30T03:04:37.354Z,18.37
2018-08-30T03:07:05.527Z,17.30
2018-08-30T03:09:33.646Z,16.97
2018-08-30T03:12:01.749Z,17.80
2018-08-30T03:14:29.886Z,17.30
2018-08-30T03:16:58.007Z,16.80
2018-08-30T03:19:26.123Z,18.67
2018-08-30T03:21:54.225Z,16.70
2018-08-30T03:24:22.350Z,16.90
2018-08-30T03:26:50.483Z,17.97
2018-08-30T03:29:18.611Z,18.40
2018-08-30T03:31:46.722Z,16.40
2018-08-30T03:34:14.834Z,16.93
2018-08-30T03:36:42.972Z,18.67
2018-08-30T03:39:11.088Z,17.30
2018-08-30T03:41:39.205Z,16.40
2018-08-30T03:44:07.322Z,19.50
2018-08-30T03:46:35.441Z,18.10
2018-08-30T03:49:04.082Z,18.73
2018-08-30T03:51:32.217Z,18.90
2018-08-30T03:54:00.361Z,20.33
2018-08-30T03:56:28.486Z,18.67
2018-08-30T03:58:56.589Z,19.03
2018-08-30T04:01:24.705Z,18.43
2018-08-30T04:03:52.819Z,19.97
2018-08-30T04:06:21.070Z,20.37
2018-08-30T04:08:49.177Z,18.80
2018-08-30T04:11:17.295Z,19.23
2018-08-30T04:13:45.447Z,19.00
2018-08-30T04:16:13.566Z,21.20
2018-08-30T04:18:41.681Z,18.13
2018-08-30T04:21:09.798Z,18.87
2018-08-30T04:23:37.942Z,18.70
2018-08-30T04:26:06.078Z,18.47
2018-08-30T04:28:34.190Z,18.67
2018-08-30T04:31:02.339Z,17.30
2018-08-30T04:33:30.450Z,18.40
2018-08-30T04:35:58.570Z,17.47
2018-08-30T04:38:26.687Z,18.07
2018-08-30T04:40:54.866Z,17.17
2018-08-30T04:43:22.982Z,16.80
2018-08-30T04:45:51.418Z,18.40
2018-08-30T04:48:19.543Z,17.37
2018-08-30T04:50:47.666Z,18.03
2018-08-30T04:53:15.786Z,17.37
2018-08-30T04:55:43.941Z,17.23
2018-08-30T04:58:12.074Z,16.87
2018-08-30T05:00:40.190Z,17.43
2018-08-30T05:03:08.307Z,18.67
2018-08-30T05:05:36.414Z,18.17
2018-08-30T05:08:04.556Z,17.40
2018-08-30T05:10:32.749Z,18.77
2018-08-30T05:13:00.870Z,17.10
2018-08-30T05:15:28.981Z,18.17
2018-08-30T05:17:57.099Z,18.03
2018-08-30T05:20:25.213Z,17.97
2018-08-30T05:22:53.349Z,16.90
2018-08-30T05:25:21.453Z,17.50
2018-08-30T05:27:49.600Z,17.90
2018-08-30T05:30:17.706Z,16.80
2018-08-30T05:32:46.118Z,16.67
2018-08-30T05:35:14.391Z,16.07
2018-08-30T05:37:42.510Z,16.40
2018-08-30T05:40:10.631Z,15.90
2018-08-30T05:42:38.759Z,17.27
2018-08-30T05:45:06.886Z,16.40
2018-08-30T05:47:35.014Z,16.10
2018-08-30T05:50:03.138Z,15.67
2018-08-30T05:52:31.267Z,14.97
2018-08-30T05:54:59.399Z,16.33
2018-08-30T05:57:27.534Z,15.70
2018-08-30T05:59:55.699Z,15.10
2018-08-30T06:02:23.821Z,15.43
2018-08-30T06:04:52.246Z,13.20
2018-08-30T06:07:20.444Z,12.93
2018-08-30T06:09:48.480Z,14.63
2018-08-30T06:12:16.598Z,14.50
2018-08-30T06:14:44.735Z,14.70
2018-08-30T06:17:12.846Z,15.00
2018-08-30T06:19:40.972Z,14.10
2018-08-30T06:22:09.083Z,14.97
2018-08-30T06:24:37.193Z,12.67
2018-08-30T06:27:05.319Z,14.47
2018-08-30T06:29:33.477Z,12.80
2018-08-30T06:32:01.644Z,13.43
2018-08-30T06:34:29.989Z,14.30
2018-08-30T06:36:58.218Z,12.67
2018-08-30T06:39:26.341Z,14.27
2018-08-30T06:41:54.470Z,12.80
2018-08-30T06:44:22.773Z,12.53
2018-08-30T06:46:50.907Z,12.97
2018-08-30T06:49:19.012Z,13.03
2018-08-30T06:51:47.137Z,12.67
2018-08-30T06:54:15.291Z,10.57
2018-08-30T06:56:43.398Z,12.80
2018-08-30T06:59:11.522Z,11.20
2018-08-30T07:01:39.634Z,9.77
2018-08-30T07:04:08.604Z,10.03
2018-08-30T07:06:36.644Z,10.03
2018-08-30T07:09:07.469Z,11.83
2018-08-30T07:11:35.599Z,11.23
2018-08-30T07:14:03.882Z,10.87
2018-08-30T07:16:32.114Z,10.30
2018-08-30T07:19:00.442Z,9.43
2018-08-30T07:21:28.593Z,10.20
2018-08-30T07:23:57.054Z,10.17
2018-08-30T07:26:25.390Z,10.33
2018-08-30T07:28:53.730Z,9.20
2018-08-30T07:31:21.850Z,9.80
2018-08-30T07:33:49.959Z,9.33
2018-08-30T07:36:18.199Z,8.83
2018-08-30T07:38:46.320Z,9.33
2018-08-30T07:41:14.441Z,8.20
2018-08-30T07:43:42.545Z,8.40
2018-08-30T07:46:10.666Z,6.80
2018-08-30T07:48:38.816Z,6.90
2018-08-30T07:51:07.002Z,7.80
2018-08-30T07:53:35.087Z,7.90
2018-08-30T07:56:03.194Z,6.50
2018-08-30T07:58:31.309Z,6.40
2018-08-30T08:00:59.442Z,6.90
2018-08-30T08:03:27.555Z,6.10
2018-08-30T08:05:55.693Z,8.33
2018-08-30T08:08:23.789Z,6.73
2018-08-30T08:10:51.914Z,6.70
2018-08-30T08:13:20.035Z,6.50
2018-08-30T08:15:48.146Z,6.53
2018-08-30T08:18:16.257Z,6.30
2018-08-30T08:20:44.366Z,6.00
2018-08-30T08:23:12.486Z,5.70
2018-08-30T08:25:40.602Z,5.87
2018-08-30T08:28:08.766Z,5.70
2018-08-30T08:30:36.862Z,5.53
2018-08-30T08:33:04.999Z,5.13
2018-08-30T08:35:33.144Z,6.00
2018-08-30T08:38:01.262Z,5.47
2018-08-30T08:40:29.375Z,4.90
2018-08-30T08:42:57.473Z,5.13
2018-08-30T08:45:25.603Z,4.80
2018-08-30T08:47:53.763Z,5.40
2018-08-30T08:50:21.829Z,5.00
2018-08-30T08:52:49.954Z,5.67
2018-08-30T08:55:18.067Z,5.17
2018-08-30T08:57:46.177Z,4.53
2018-08-30T09:00:14.293Z,4.70
2018-08-30T09:02:42.399Z,4.30
2018-08-30T09:05:10.857Z,4.00
2018-08-30T09:07:39.041Z,3.90
2018-08-30T09:10:07.329Z,4.10
2018-08-30T09:12:36.179Z,3.73
2018-08-30T09:15:04.370Z,4.10
2018-08-30T09:17:32.720Z,4.00
2018-08-30T09:20:00.832Z,3.97
2018-08-30T09:22:28.951Z,3.83
2018-08-30T09:24:57.082Z,3.80
2018-08-30T09:27:25.206Z,3.73
2018-08-30T09:29:53.314Z,3.43
2018-08-30T09:32:21.424Z,4.23
2018-08-30T09:34:49.554Z,3.73
2018-08-30T09:37:17.732Z,4.17
2018-08-30T09:39:46.274Z,3.90
2018-08-30T09:42:14.986Z,3.20
2018-08-30T09:44:43.121Z,3.20
2018-08-30T09:47:11.250Z,3.90
2018-08-30T09:49:39.413Z,3.40
2018-08-30T09:52:07.478Z,3.17
2018-08-30T09:54:35.628Z,3.23
2018-08-30T09:57:03.801Z,3.50
2018-08-30T09:59:31.906Z,3.03
2018-08-30T10:02:05.426Z,3.40
2018-08-30T10:04:33.664Z,3.47
2018-08-30T10:07:01.745Z,2.90
2018-08-30T10:09:29.868Z,2.90
2018-08-30T10:11:57.994Z,3.03
2018-08-30T10:14:26.093Z,2.67
2018-08-30T10:16:54.255Z,2.63
2018-08-30T10:19:22.372Z,2.87
2018-08-30T10:21:51.467Z,2.70
2018-08-30T10:24:19.603Z,3.30
2018-08-30T10:26:47.743Z,3.03
2018-08-30T10:29:15.876Z,2.90
2018-08-30T10:31:44.028Z,2.77
2018-08-30T10:34:12.137Z,2.90
2018-08-30T10:36:40.257Z,2.37
2018-08-30T10:39:08.888Z,2.53
2018-08-30T10:41:37.017Z,2.33
2018-08-30T10:44:05.186Z,2.87
2018-08-30T10:46:33.301Z,2.60
2018-08-30T10:49:01.416Z,2.47
2018-08-30T10:51:29.554Z,2.70
2018-08-30T10:53:57.714Z,2.50
2018-08-30T10:56:25.902Z,2.20
2018-08-30T10:58:53.995Z,2.10
2018-08-30T11:01:22.120Z,2.80
2018-08-30T11:03:50.254Z,2.30
2018-08-30T11:06:18.359Z,2.60
2018-08-30T11:08:46.465Z,2.77
2018-08-30T11:11:14.579Z,2.63
2018-08-30T11:13:42.698Z,2.47
2018-08-30T11:16:10.809Z,2.83
2018-08-30T11:18:38.934Z,2.10
2018-08-30T11:21:07.042Z,2.10
2018-08-30T11:23:35.207Z,2.43
2018-08-30T11:26:03.297Z,2.23
2018-08-30T11:28:31.435Z,2.70
2018-08-30T11:30:59.538Z,2.33
2018-08-30T11:33:27.986Z,2.23
2018-08-30T11:35:56.113Z,2.40
2018-08-30T11:38:24.275Z,2.97
2018-08-30T11:40:52.390Z,2.80
2018-08-30T11:43:20.555Z,2.40
2018-08-30T11:45:48.622Z,2.33
2018-08-30T11:48:16.741Z,2.50
2018-08-30T11:50:44.894Z,3.50
2018-08-30T11:53:12.991Z,3.07
2018-08-30T11:55:41.129Z,2.90
2018-08-30T11:58:09.243Z,2.60
2018-08-30T12:00:37.361Z,3.23
2018-08-30T12:03:05.647Z,3.23
2018-08-30T12:05:33.730Z,2.77
2018-08-30T12:08:01.865Z,2.63
2018-08-30T12:10:30.437Z,3.00
2018-08-30T12:12:58.732Z,2.63
2018-08-30T12:15:27.242Z,2.20
2018-08-30T12:17:55.366Z,2.87
2018-08-30T12:20:23.500Z,1.90
2018-08-30T12:22:51.606Z,3.00
2018-08-30T12:25:19.723Z,2.70
2018-08-30T12:27:47.991Z,2.77
2018-08-30T12:30:16.178Z,2.67
2018-08-30T12:32:44.289Z,2.50
2018-08-30T12:35:12.529Z,2.20
2018-08-30T12:37:40.545Z,2.43
2018-08-30T12:40:08.739Z,2.20
2018-08-30T12:42:36.780Z,2.53
2018-08-30T12:45:05.150Z,2.53
2018-08-30T12:47:33.349Z,2.70
2018-08-30T12:50:01.476Z,2.40
2018-08-30T12:52:29.624Z,2.10
2018-08-30T12:54:57.829Z,2.00
2018-08-30T12:57:25.926Z,2.00
2018-08-30T12:59:54.035Z,1.93
2018-08-30T13:02:22.247Z,2.53
2018-08-30T13:04:50.408Z,2.00
2018-08-30T13:07:18.551Z,2.10
2018-08-30T13:09:46.751Z,2.50
2018-08-30T13:12:14.792Z,2.20
2018-08-30T13:14:43.047Z,2.53
2018-08-30T13:17:11.190Z,1.97
2018-08-30T13:19:39.445Z,2.37
2018-08-30T13:22:07.620Z,2.40
2018-08-30T13:24:35.680Z,2.33
2018-08-30T13:27:03.704Z,2.00
2018-08-30T13:29:31.888Z,1.80
2018-08-30T13:32:00.064Z,2.03
2018-08-30T13:34:28.241Z,1.63
2018-08-30T13:36:56.361Z,1.80
2018-08-30T13:39:24.590Z,1.73
2018-08-30T13:41:52.657Z,2.07
2018-08-30T13:44:20.651Z,2.17
2018-08-30T13:46:49.029Z,2.10
2018-08-30T13:49:16.829Z,2.07
2018-08-30T13:51:45.382Z,2.13
2018-08-30T13:54:13.247Z,1.87
2018-08-30T13:56:41.597Z,1.97
2018-08-30T13:59:09.443Z,2.30
2018-08-30T14:01:37.502Z,1.73
2018-08-30T14:04:05.711Z,1.63
2018-08-30T14:06:33.739Z,2.40
2018-08-30T14:09:01.881Z,1.83
2018-08-30T14:11:30.103Z,2.00
2018-08-30T14:13:58.109Z,1.90
2018-08-30T14:16:25.910Z,1.87
2018-08-30T14:18:54.050Z,1.80
2018-08-30T14:21:22.150Z,1.70
2018-08-30T14:23:50.263Z,1.97
2018-08-30T14:26:18.361Z,1.87
2018-08-30T14:28:46.599Z,2.70
2018-08-30T14:31:14.705Z,2.00
2018-08-30T14:33:42.823Z,2.23
2018-08-30T14:36:10.934Z,2.60
2018-08-30T14:38:39.064Z,2.00
2018-08-30T14:41:07.384Z,2.10
2018-08-30T14:43:35.370Z,2.03
2018-08-30T14:46:03.428Z,1.77
2018-08-30T14:48:31.531Z,2.47
2018-08-30T14:50:59.682Z,1.80
2018-08-30T14:53:27.985Z,2.03
2018-08-30T14:55:56.227Z,1.90
2018-08-30T14:58:24.323Z,2.10
2018-08-30T15:00:52.464Z,1.87
2018-08-30T15:03:20.722Z,2.33
2018-08-30T15:05:48.872Z,1.50
2018-08-30T15:08:16.970Z,2.00
2018-08-30T15:10:45.122Z,2.10
2018-08-30T15:13:13.660Z,1.80
2018-08-30T15:15:41.771Z,2.10
2018-08-30T15:18:09.891Z,2.10
2018-08-30T15:20:38.131Z,1.87
2018-08-30T15:23:06.374Z,1.70
2018-08-30T15:25:34.418Z,1.87
2018-08-30T15:28:02.559Z,2.00
2018-08-30T15:30:30.758Z,2.07
2018-08-30T15:32:58.776Z,1.90
2018-08-30T15:35:27.074Z,2.00
2018-08-30T15:37:55.036Z,2.10
2018-08-30T15:40:23.200Z,1.63
2018-08-30T15:42:51.334Z,1.93
2018-08-30T15:45:19.644Z,1.93
2018-08-30T15:47:47.775Z,1.40
2018-08-30T15:50:15.878Z,1.60
2018-08-30T15:52:44.063Z,1.47
2018-08-30T15:55:12.244Z,1.80
2018-08-30T15:57:40.317Z,1.67
2018-08-30T16:00:08.815Z,1.60
2018-08-30T16:02:36.944Z,1.90
2018-08-30T16:05:05.137Z,2.33
2018-08-30T16:07:33.275Z,1.77
2018-08-30T16:10:01.384Z,1.43
2018-08-30T16:12:29.518Z,2.10
2018-08-30T16:14:57.619Z,1.90
2018-08-30T16:17:25.820Z,1.73
2018-08-30T16:19:53.847Z,2.10
2018-08-30T16:22:32.445Z,2.67
2018-08-30T16:25:00.572Z,1.53
2018-08-30T16:27:28.707Z,1.60
2018-08-30T16:29:56.810Z,2.00
2018-08-30T16:32:24.979Z,3.37
2018-08-30T16:34:53.226Z,3.30
2018-08-30T16:37:21.203Z,2.33
2018-08-30T16:39:49.359Z,1.80
2018-08-30T16:42:17.451Z,2.20
2018-08-30T16:44:45.631Z,1.97
2018-08-30T16:47:13.835Z,1.90
2018-08-30T16:49:41.905Z,1.97
2018-08-30T16:52:10.034Z,1.80
2018-08-30T16:54:38.154Z,1.93
2018-08-30T16:57:06.257Z,1.87
2018-08-30T16:59:34.370Z,1.67
2018-08-30T17:02:02.620Z,1.30
2018-08-30T17:04:30.641Z,1.57
2018-08-30T17:06:58.756Z,1.60
2018-08-30T17:09:26.919Z,1.60
2018-08-30T17:11:55.026Z,1.87
2018-08-30T17:14:23.162Z,1.10
2018-08-30T17:16:51.291Z,1.70
2018-08-30T17:19:23.660Z,1.43
2018-08-30T17:21:51.753Z,2.40
2018-08-30T17:24:19.962Z,2.03
2018-08-30T17:26:48.089Z,2.07
2018-08-30T17:29:16.319Z,1.50
2018-08-30T17:31:44.388Z,1.83
2018-08-30T17:34:12.622Z,1.53
2018-08-30T17:36:40.741Z,1.60
2018-08-30T17:39:10.045Z,1.67
2018-08-30T17:41:38.233Z,1.50
2018-08-30T17:44:07.222Z,1.63
2018-08-30T17:46:35.390Z,1.70
2018-08-30T17:49:03.687Z,1.20
2018-08-30T17:51:31.829Z,1.77
2018-08-30T17:53:59.955Z,1.60
2018-08-30T17:56:28.253Z,1.70
2018-08-30T17:58:56.378Z,1.50
2018-08-30T18:01:24.539Z,1.67
2018-08-30T18:03:52.625Z,1.53
2018-08-30T18:06:20.961Z,1.33
2018-08-30T18:08:49.230Z,1.77
2018-08-30T18:11:17.204Z,1.70
2018-08-30T18:13:45.417Z,1.80
2018-08-30T18:16:13.523Z,1.70
2018-08-30T18:18:41.638Z,2.23
2018-08-30T18:21:09.790Z,1.50
2018-08-30T18:23:37.915Z,1.60
2018-08-30T18:26:06.038Z,1.27
2018-08-30T18:28:34.148Z,1.70
2018-08-30T18:31:02.348Z,1.50
2018-08-30T18:33:30.478Z,1.20
2018-08-30T18:35:58.617Z,1.70
2018-08-30T18:38:26.750Z,1.73
2018-08-30T18:40:54.957Z,1.30
2018-08-30T18:43:23.074Z,1.77
2018-08-30T18:45:51.359Z,1.70
2018-08-30T18:48:19.597Z,1.37
2018-08-30T18:50:47.770Z,2.00
2018-08-30T18:53:15.899Z,1.60
2018-08-30T18:55:44.022Z,1.53
2018-08-30T18:58:12.473Z,1.70
2018-08-30T19:00:40.833Z,1.67
2018-08-30T19:03:09.907Z,2.00
2018-08-30T19:05:38.019Z,2.37
2018-08-30T19:08:06.311Z,1.87
2018-08-30T19:10:34.523Z,1.83
2018-08-30T19:13:02.679Z,2.00
2018-08-30T19:15:36.099Z,1.70
2018-08-30T19:18:09.592Z,2.03
2018-08-30T19:20:37.807Z,1.90
2018-08-30T19:23:05.848Z,1.93
2018-08-30T19:25:33.982Z,1.90
2018-08-30T19:28:02.100Z,1.77
2018-08-30T19:30:31.570Z,2.20
2018-08-30T19:33:00.142Z,1.30
2018-08-30T19:35:33.725Z,1.57
2018-08-30T19:38:01.840Z,1.53
2018-08-30T19:40:35.339Z,1.53
2018-08-30T19:43:03.458Z,1.20
2018-08-30T19:45:31.579Z,1.50
2018-08-30T19:47:59.685Z,1.90
2018-08-30T19:50:28.550Z,2.20
2018-08-30T19:52:56.690Z,1.80
2018-08-30T19:55:24.819Z,2.10
2018-08-30T19:57:52.970Z,1.63
2018-08-30T20:00:21.562Z,1.80
2018-08-30T20:02:49.697Z,1.60
2018-08-30T20:05:17.842Z,1.63
2018-08-30T20:07:45.977Z,1.90
2018-08-30T20:10:14.083Z,1.77
2018-08-30T20:12:42.194Z,1.60
2018-08-30T20:15:10.325Z,1.57
2018-08-30T20:17:38.465Z,1.90
2018-08-30T20:20:06.744Z,2.37
2018-08-30T20:22:34.878Z,1.80
2018-08-30T20:25:03.110Z,1.93
2018-08-30T20:27:31.273Z,2.00
2018-08-30T20:29:59.382Z,1.90
2018-08-30T20:32:27.522Z,1.47
2018-08-30T20:34:55.651Z,1.70
2018-08-30T20:37:23.780Z,1.40
2018-08-30T20:39:51.919Z,1.90
2018-08-30T20:42:20.050Z,2.10
2018-08-30T20:44:48.202Z,2.10
2018-08-30T20:47:16.375Z,2.23
2018-08-30T20:49:44.514Z,2.10
2018-08-30T20:52:12.477Z,2.27
2018-08-30T20:54:40.602Z,1.73
2018-08-30T20:57:08.714Z,2.10
2018-08-30T21:02:28.315Z,2.40
2018-08-30T21:04:56.671Z,2.07
2018-08-30T21:07:24.822Z,2.20
2018-08-30T21:09:52.795Z,1.83
2018-08-30T21:12:20.710Z,1.90
2018-08-30T21:14:48.913Z,1.90
2018-08-30T21:17:17.073Z,2.80
2018-08-30T21:19:45.743Z,2.20
2018-08-30T21:22:15.000Z,2.10
2018-08-30T21:24:43.170Z,1.73
2018-08-30T21:27:11.346Z,1.80
2018-08-30T21:29:39.530Z,1.83
2018-08-30T21:32:07.696Z,1.80
2018-08-30T21:34:35.879Z,1.90
2018-08-30T21:37:04.058Z,1.80
2018-08-30T21:39:32.214Z,1.60
2018-08-30T21:42:02.287Z,1.57
2018-08-30T21:44:32.069Z,2.03
2018-08-30T21:47:05.399Z,2.03
2018-08-30T21:49:34.870Z,1.90
2018-08-30T21:52:10.018Z,1.70
2018-08-30T21:54:38.562Z,1.70
2018-08-30T21:57:07.811Z,1.80
2018-08-30T21:59:38.573Z,1.40
2018-08-30T22:02:08.992Z,1.97
2018-08-30T22:04:38.743Z,1.33
2018-08-30T22:07:10.141Z,1.70
2018-08-30T22:09:41.446Z,1.70
2018-08-30T22:12:13.100Z,2.20
2018-08-30T22:14:47.145Z,1.57
2018-08-30T22:17:18.088Z,2.10
2018-08-30T22:19:49.975Z,1.87
2018-08-30T22:22:19.781Z,1.90
2018-08-30T22:24:49.770Z,2.60
2018-08-30T22:27:17.933Z,2.03
2018-08-30T22:29:46.090Z,2.70
2018-08-30T22:32:14.343Z,2.20
2018-08-30T22:34:43.152Z,1.80
2018-08-30T22:37:11.314Z,2.47
2018-08-30T22:39:39.465Z,2.07
2018-08-30T22:42:07.637Z,1.97
2018-08-30T22:44:35.818Z,1.93
2018-08-30T22:47:03.985Z,2.83
2018-08-30T22:49:32.170Z,2.07
2018-08-30T22:52:00.338Z,2.10
2018-08-30T22:54:28.457Z,2.17
2018-08-30T22:56:56.650Z,2.10
2018-08-30T22:59:24.802Z,1.90
2018-08-30T23:01:52.947Z,1.80
2018-08-30T23:04:21.101Z,2.07
2018-08-30T23:06:49.261Z,2.03
2018-08-30T23:09:17.325Z,2.00
2018-08-30T23:11:45.452Z,1.90
2018-08-30T23:14:13.590Z,1.60
2018-08-30T23:16:41.724Z,2.03
2018-08-30T23:19:09.849Z,2.00
2018-08-30T23:21:37.965Z,2.17
2018-08-30T23:24:06.509Z,2.40
2018-08-30T23:26:34.643Z,2.00
2018-08-30T23:29:02.786Z,1.50
2018-08-30T23:31:30.922Z,2.00
2018-08-30T23:33:59.249Z,1.77
2018-08-30T23:36:27.470Z,2.63
2018-08-30T23:38:55.629Z,2.13
2018-08-30T23:41:23.750Z,1.77
2018-08-30T23:43:51.949Z,2.07
2018-08-30T23:46:20.065Z,1.83
2018-08-30T23:48:48.183Z,1.77
2018-08-30T23:51:16.373Z,2.17
2018-08-30T23:53:44.598Z,1.80
2018-08-30T23:56:12.826Z,1.73
2018-08-30T23:58:52.377Z,1.90
